Time;durP1;ratioP1;P1;durP2;ratioP2;P2;SDS_P1;SDS_P2;PMS_P1;PMS_P2;Temp;Humidity;BMP_temperature;BMP_pressure;BME280_temperature;BME280_humidity;BME280_pressure;Samples;Min_cycle;Max_cycle;Signal;HPM_P1;HPM_P2
2023/08/06 00:00:24;;;;;;;0.45;0.45;;;13.10;99.90;;;;;;5046830;28;20048;-90
2023/08/06 00:02:50;;;;;;;0.25;0.25;;;13.20;99.90;;;;;;5029552;28;20037;-90
2023/08/06 00:05:20;;;;;;;1.15;1.02;;;13.10;99.90;;;;;;5048032;28;20059;-90
2023/08/06 00:07:47;;;;;;;0.63;0.52;;;14.60;99.90;;;;;;5029594;28;20048;-90
2023/08/06 00:10:13;;;;;;;0.40;0.35;;;13.10;99.90;;;;;;5045895;28;20048;-90
2023/08/06 00:12:39;;;;;;;1.10;0.98;;;13.10;99.90;;;;;;5046298;28;20466;-90
2023/08/06 00:15:05;;;;;;;0.20;0.20;;;13.10;99.90;;;;;;5029809;28;20044;-90
2023/08/06 00:17:30;;;;;;;0.52;0.50;;;13.10;99.90;;;;;;5046430;28;20052;-90
2023/08/06 00:19:56;;;;;;;1.88;1.10;;;14.30;99.90;;;;;;5047720;28;20459;-90
2023/08/06 00:22:22;;;;;;;0.52;0.45;;;13.10;99.90;;;;;;5045929;28;20045;-90
2023/08/06 00:24:48;;;;;;;0.85;0.75;;;13.10;99.90;;;;;;5045969;28;20114;-90
2023/08/06 00:27:13;;;;;;;0.40;0.40;;;13.10;99.90;;;;;;5029390;28;20049;-90
2023/08/06 00:29:39;;;;;;;0.38;0.38;;;13.10;99.90;;;;;;5029318;28;20056;-90
2023/08/06 00:32:05;;;;;;;1.90;0.93;;;13.10;99.90;;;;;;5029549;28;20167;-90
2023/08/06 00:34:31;;;;;;;0.70;0.57;;;13.10;99.90;;;;;;5046150;28;20407;-90
2023/08/06 00:36:56;;;;;;;1.65;0.40;;;14.40;99.90;;;;;;5047732;28;20053;-90
2023/08/06 00:39:23;;;;;;;1.17;0.63;;;13.10;99.90;;;;;;5047569;28;20075;-90
2023/08/06 00:41:49;;;;;;;0.98;0.75;;;13.20;99.90;;;;;;5046052;28;20056;-90
2023/08/06 00:44:15;;;;;;;1.05;0.55;;;14.20;99.90;;;;;;5029355;28;20529;-90
2023/08/06 00:46:41;;;;;;;0.73;0.45;;;13.40;99.90;;;;;;5030238;28;20107;-90
2023/08/06 00:49:09;;;;;;;0.85;0.50;;;13.20;99.90;;;;;;5033350;28;20118;-90
2023/08/06 00:51:35;;;;;;;0.45;0.32;;;13.10;99.90;;;;;;5033481;28;20064;-90
2023/08/06 00:54:02;;;;;;;2.80;1.00;;;14.60;99.90;;;;;;5033177;28;20067;-90
2023/08/06 00:56:29;;;;;;;0.40;0.40;;;13.10;99.90;;;;;;5049794;28;20045;-90
2023/08/06 00:58:55;;;;;;;2.33;1.05;;;13.30;99.90;;;;;;5049740;28;20111;-90
2023/08/06 01:01:20;;;;;;;3.50;0.98;;;13.10;99.90;;;;;;5033240;28;20040;-90
2023/08/06 01:03:46;;;;;;;0.85;0.70;;;13.10;99.90;;;;;;5050042;28;20043;-90
2023/08/06 01:06:12;;;;;;;0.25;0.25;;;13.20;99.90;;;;;;5049542;28;20041;-90
2023/08/06 01:08:53;;;;;;;1.23;0.77;;;13.20;99.90;;;;;;5049728;28;20609;-91
2023/08/06 01:11:33;;;;;;;1.05;1.00;;;13.20;99.90;;;;;;5049983;28;20123;-91
2023/08/06 01:14:22;;;;;;;2.03;0.75;;;13.10;99.90;;;;;;5032785;28;20053;-90
2023/08/06 01:16:50;;;;;;;0.95;0.88;;;13.20;99.90;;;;;;5032964;28;20056;-90
2023/08/06 01:19:21;;;;;;;1.38;1.00;;;13.20;99.90;;;;;;5033090;28;20049;-90
2023/08/06 01:21:47;;;;;;;0.38;0.38;;;13.30;99.90;;;;;;5065751;28;20058;-90
2023/08/06 01:24:13;;;;;;;2.22;0.60;;;13.20;99.90;;;;;;5032892;28;20071;-90
2023/08/06 01:27:10;;;;;;;1.35;1.25;;;13.10;99.90;;;;;;5049794;28;20047;-90
2023/08/06 01:29:41;;;;;;;0.30;0.30;;;13.30;99.90;;;;;;5055964;28;20098;-90
2023/08/06 01:32:10;;;;;;;1.17;1.08;;;13.30;99.90;;;;;;5051879;28;20075;-90
2023/08/06 01:34:39;;;;;;;0.65;0.65;;;14.40;99.90;;;;;;5046970;28;20052;-90
2023/08/06 01:37:05;;;;;;;1.13;0.60;;;13.30;99.90;;;;;;5053060;28;20036;-90
2023/08/06 01:39:33;;;;;;;1.55;1.05;;;13.30;99.90;;;;;;5069898;28;20056;-90
2023/08/06 01:41:59;;;;;;;0.77;0.60;;;13.30;99.90;;;;;;5058178;28;20045;-90
2023/08/06 01:44:24;;;;;;;3.65;2.05;;;13.30;99.90;;;;;;5073462;28;20037;-90
2023/08/06 01:46:50;;;;;;;3.75;1.67;;;13.30;99.90;;;;;;5053807;28;20037;-90
2023/08/06 01:49:16;;;;;;;0.52;0.52;;;13.30;99.90;;;;;;5069120;28;20033;-90
2023/08/06 01:51:41;;;;;;;2.50;1.60;;;13.30;99.90;;;;;;5059774;28;20029;-91
2023/08/06 01:54:07;;;;;;;1.08;0.98;;;13.30;99.90;;;;;;5076080;28;20021;-90
2023/08/06 01:56:33;;;;;;;0.82;0.80;;;13.40;99.90;;;;;;5059136;28;20043;-89
2023/08/06 01:58:59;;;;;;;1.23;1.13;;;13.40;99.90;;;;;;5055459;28;20045;-90
2023/08/06 02:01:24;;;;;;;0.77;0.77;;;13.30;99.90;;;;;;5051650;28;20053;-90
2023/08/06 02:03:50;;;;;;;5.28;1.58;;;14.30;99.90;;;;;;5034181;28;20045;-90
2023/08/06 02:06:16;;;;;;;1.75;0.75;;;14.50;99.90;;;;;;5049891;28;20914;-90
2023/08/06 02:08:42;;;;;;;1.30;0.82;;;13.30;99.90;;;;;;5033147;28;20095;-90
2023/08/06 02:11:08;;;;;;;0.52;0.52;;;12.50;99.90;;;;;;5050065;28;20053;-90
2023/08/06 02:13:33;;;;;;;2.97;1.52;;;13.30;99.90;;;;;;5051086;28;20130;-90
2023/08/06 02:15:59;;;;;;;5.00;1.58;;;13.40;99.90;;;;;;5033188;28;20044;-90
2023/08/06 02:18:25;;;;;;;1.55;0.98;;;13.30;99.90;;;;;;5050562;28;20053;-90
2023/08/06 02:20:58;;;;;;;0.85;0.63;;;14.70;99.90;;;;;;5048847;28;20483;-90
2023/08/06 02:23:24;;;;;;;2.38;0.70;;;13.20;99.90;;;;;;5031832;28;20400;-90
2023/08/06 02:26:03;;;;;;;0.85;0.55;;;14.70;99.90;;;;;;5031742;28;20056;-90
2023/08/06 02:28:29;;;;;;;0.73;0.65;;;13.40;99.90;;;;;;5031403;28;20507;-91
2023/08/06 02:30:55;;;;;;;2.30;1.30;;;13.30;99.90;;;;;;5031583;28;20392;-90
2023/08/06 02:33:21;;;;;;;1.48;0.88;;;13.40;99.90;;;;;;5048070;28;20048;-91
2023/08/06 02:35:47;;;;;;;1.33;1.08;;;13.40;99.90;;;;;;5064882;28;20121;-91
2023/08/06 02:38:12;;;;;;;0.95;0.85;;;13.30;99.90;;;;;;5031178;28;20056;-91
2023/08/06 02:40:45;;;;;;;1.23;0.70;;;14.60;99.90;;;;;;5031636;28;20841;-91
2023/08/06 02:43:11;;;;;;;1.20;0.52;;;13.30;99.90;;;;;;5031099;28;20052;-91
2023/08/06 02:45:37;;;;;;;1.92;1.40;;;13.20;99.90;;;;;;5048014;28;20057;-91
2023/08/06 02:48:03;;;;;;;0.80;0.57;;;14.70;99.90;;;;;;5047654;28;20415;-91
2023/08/06 02:50:29;;;;;;;1.00;0.85;;;13.30;99.90;;;;;;5047852;28;20130;-91
2023/08/06 02:52:54;;;;;;;3.08;1.45;;;13.30;99.90;;;;;;5031145;28;20527;-91
2023/08/06 02:55:20;;;;;;;1.40;0.90;;;13.20;99.90;;;;;;5031005;28;20041;-91
2023/08/06 02:57:46;;;;;;;0.50;0.50;;;13.30;99.90;;;;;;5031123;28;20044;-91
2023/08/06 03:00:12;;;;;;;0.40;0.40;;;13.20;99.90;;;;;;5047846;28;20189;-91
2023/08/06 03:02:37;;;;;;;1.55;0.80;;;13.20;99.90;;;;;;5047435;28;20171;-91
2023/08/06 03:05:04;;;;;;;0.32;0.32;;;14.40;99.90;;;;;;5047482;28;20057;-91
2023/08/06 03:07:29;;;;;;;1.17;1.05;;;13.20;99.90;;;;;;5047684;28;20048;-91
2023/08/06 03:09:55;;;;;;;0.30;0.22;;;13.20;99.90;;;;;;5030660;28;20098;-91
2023/08/06 03:12:21;;;;;;;0.73;0.55;;;13.40;99.90;;;;;;5031033;28;20052;-91
2023/08/06 03:14:46;;;;;;;0.25;0.25;;;14.70;99.90;;;;;;5047574;28;20045;-91
2023/08/06 03:17:12;;;;;;;1.60;1.10;;;13.40;99.90;;;;;;5047506;28;20925;-91
2023/08/06 03:19:38;;;;;;;1.75;0.60;;;14.50;99.90;;;;;;5047202;28;20041;-91
2023/08/06 03:22:04;;;;;;;2.42;0.93;;;13.20;99.90;;;;;;5047143;28;20040;-91
2023/08/06 03:24:29;;;;;;;0.47;0.47;;;13.20;99.90;;;;;;5031101;28;20514;-91
2023/08/06 03:26:55;;;;;;;2.83;1.05;;;13.20;99.90;;;;;;5030257;28;20047;-91
2023/08/06 03:29:22;;;;;;;7.68;1.80;;;13.10;99.90;;;;;;5048610;28;20040;-91
2023/08/06 03:31:47;;;;;;;0.60;0.60;;;13.10;99.90;;;;;;5047088;28;20041;-91
2023/08/06 03:34:13;;;;;;;0.52;0.45;;;13.20;99.90;;;;;;5033597;28;20053;-90
2023/08/06 03:36:42;;;;;;;1.02;0.93;;;13.10;99.90;;;;;;5048162;28;20452;-91
2023/08/06 03:39:07;;;;;;;0.30;0.30;;;13.10;99.90;;;;;;5046952;28;20041;-91
2023/08/06 03:41:33;;;;;;;0.68;0.68;;;13.00;99.90;;;;;;5030252;28;20053;-90
2023/08/06 03:44:00;;;;;;;0.52;0.52;;;14.30;99.90;;;;;;5029802;28;20515;-90
2023/08/06 03:46:26;;;;;;;1.08;0.57;;;12.90;99.90;;;;;;5029955;28;20049;-91
2023/08/06 03:48:52;;;;;;;5.18;1.05;;;13.90;99.90;;;;;;5046929;28;20147;-91
2023/08/06 03:51:17;;;;;;;0.52;0.32;;;12.80;99.90;;;;;;5029909;28;20412;-90
2023/08/06 03:53:43;;;;;;;0.40;0.30;;;12.60;99.90;;;;;;5030220;28;20063;-91
2023/08/06 03:56:12;;;;;;;0.80;0.73;;;13.60;99.90;;;;;;5046709;28;20090;-90
2023/08/06 03:58:37;;;;;;;0.68;0.68;;;12.40;99.90;;;;;;5046865;28;20432;-91
2023/08/06 04:01:03;;;;;;;0.60;0.60;;;13.80;99.90;;;;;;5029692;28;20183;-91
2023/08/06 04:03:29;;;;;;;1.63;1.02;;;12.30;99.90;;;;;;5046504;28;20040;-91
2023/08/06 04:05:55;;;;;;;0.35;0.35;;;12.20;99.90;;;;;;5029951;28;20369;-91
2023/08/06 04:08:21;;;;;;;5.78;1.23;;;12.10;99.90;;;;;;5029052;28;20560;-90
2023/08/06 04:10:52;;;;;;;0.65;0.65;;;12.10;99.90;;;;;;5029722;28;20045;-90
2023/08/06 04:13:17;;;;;;;0.20;0.15;;;12.00;99.90;;;;;;5046193;28;20052;-90
2023/08/06 04:15:43;;;;;;;0.68;0.45;;;11.90;99.90;;;;;;5029417;28;20049;-90
2023/08/06 04:18:12;;;;;;;0.55;0.55;;;11.90;99.90;;;;;;5029475;28;20055;-90
2023/08/06 04:20:49;;;;;;;0.20;0.20;;;11.90;99.90;;;;;;5046385;28;20099;-90
2023/08/06 04:23:15;;;;;;;0.38;0.38;;;11.90;99.90;;;;;;5047235;28;20190;-90
2023/08/06 04:25:40;;;;;;;0.73;0.45;;;11.90;99.90;;;;;;5029607;28;20128;-90
2023/08/06 04:28:07;;;;;;;1.17;0.93;;;11.90;99.90;;;;;;5029849;28;20060;-90
2023/08/06 04:30:33;;;;;;;3.15;0.80;;;11.80;99.90;;;;;;5029587;28;20048;-90
2023/08/06 04:32:59;;;;;;;0.80;0.45;;;11.90;99.90;;;;;;5029984;28;20410;-90
2023/08/06 04:35:24;;;;;;;2.60;0.50;;;12.70;99.90;;;;;;5029232;28;20082;-90
2023/08/06 04:37:50;;;;;;;1.45;0.20;;;11.80;99.90;;;;;;5062853;28;20045;-90
2023/08/06 04:40:16;;;;;;;0.80;0.75;;;11.60;99.90;;;;;;5029607;28;20131;-90
2023/08/06 04:42:42;;;;;;;0.25;0.15;;;11.60;99.90;;;;;;5046115;28;20483;-91
2023/08/06 04:45:08;;;;;;;0.22;0.22;;;11.60;99.90;;;;;;5029879;28;20048;-91
2023/08/06 04:47:33;;;;;;;0.38;0.32;;;11.50;99.90;;;;;;5046120;28;20073;-90
2023/08/06 04:49:59;;;;;;;0.38;0.38;;;13.00;99.90;;;;;;5046033;28;20075;-90
2023/08/06 04:52:28;;;;;;;0.32;0.32;;;11.60;99.90;;;;;;5046112;28;20540;-90
2023/08/06 04:54:54;;;;;;;0.65;0.65;;;11.60;99.90;;;;;;5029363;28;20052;-90
2023/08/06 04:57:20;;;;;;;0.20;0.17;;;11.60;99.90;;;;;;5047539;28;20123;-90
2023/08/06 04:59:46;;;;;;;1.10;0.40;;;11.60;99.90;;;;;;5029215;28;20037;-90
2023/08/06 05:02:12;;;;;;;0.60;0.52;;;11.60;99.90;;;;;;5045875;28;20055;-90
2023/08/06 05:04:38;;;;;;;0.85;0.52;;;12.90;99.90;;;;;;5029226;28;20136;-90
2023/08/06 05:07:05;;;;;;;0.20;0.20;;;11.70;99.90;;;;;;5029311;28;20131;-90
2023/08/06 05:09:31;;;;;;;3.05;1.25;;;11.60;99.90;;;;;;5029146;28;20440;-90
2023/08/06 05:11:56;;;;;;;0.80;0.50;;;11.70;99.90;;;;;;5029226;28;20048;-90
2023/08/06 05:14:22;;;;;;;0.45;0.30;;;13.10;99.90;;;;;;5028964;28;20040;-90
2023/08/06 05:16:48;;;;;;;0.20;0.20;;;11.90;99.90;;;;;;5029241;28;20538;-90
2023/08/06 05:19:14;;;;;;;0.52;0.43;;;12.50;99.90;;;;;;5045786;28;20045;-90
2023/08/06 05:21:42;;;;;;;0.63;0.63;;;13.00;99.90;;;;;;5029038;28;20381;-90
2023/08/06 05:24:08;;;;;;;1.25;0.35;;;12.50;99.90;;;;;;5028980;28;20084;-90
2023/08/06 05:26:34;;;;;;;0.15;0.15;;;12.70;99.90;;;;;;5045595;28;20065;-90
2023/08/06 05:29:01;;;;;;;0.52;0.52;;;12.30;99.90;;;;;;5029173;28;20142;-90
2023/08/06 05:31:28;;;;;;;0.32;0.20;;;12.10;99.90;;;;;;5028863;28;20045;-90
2023/08/06 05:33:54;;;;;;;1.35;1.20;;;13.70;99.90;;;;;;5029661;28;20061;-90
2023/08/06 05:36:21;;;;;;;0.65;0.57;;;12.40;99.90;;;;;;5049090;28;20056;-90
2023/08/06 05:38:47;;;;;;;0.43;0.38;;;12.50;99.90;;;;;;5032588;28;20484;-90
2023/08/06 05:41:13;;;;;;;1.10;0.88;;;12.50;99.90;;;;;;5049343;28;20140;-90
2023/08/06 05:43:39;;;;;;;1.75;0.73;;;14.00;99.90;;;;;;5048812;28;20555;-90
2023/08/06 05:46:07;;;;;;;3.00;0.93;;;12.70;99.90;;;;;;5033359;28;20084;-90
2023/08/06 05:48:33;;;;;;;1.77;0.75;;;12.70;99.90;;;;;;5032619;28;20518;-90
2023/08/06 05:50:59;;;;;;;0.20;0.20;;;12.90;99.90;;;;;;5049087;28;20045;-90
2023/08/06 05:53:25;;;;;;;1.65;1.27;;;12.90;99.90;;;;;;5032036;28;20118;-90
2023/08/06 05:55:51;;;;;;;0.20;0.20;;;13.00;99.90;;;;;;5032374;28;20049;-90
2023/08/06 05:58:17;;;;;;;0.10;0.10;;;14.50;99.90;;;;;;5032097;28;20136;-91
2023/08/06 06:00:42;;;;;;;2.33;1.00;;;13.10;99.90;;;;;;5032211;28;20041;-90
2023/08/06 06:03:08;;;;;;;2.25;1.05;;;13.30;99.90;;;;;;5031827;28;20786;-91
2023/08/06 06:05:34;;;;;;;0.52;0.50;;;13.50;99.90;;;;;;5032265;28;20049;-90
2023/08/06 06:08:00;;;;;;;0.57;0.57;;;14.40;99.90;;;;;;5048815;28;20044;-90
2023/08/06 06:10:25;;;;;;;0.85;0.75;;;13.80;99.90;;;;;;5048477;28;20049;-90
2023/08/06 06:12:51;;;;;;;0.85;0.63;;;14.00;99.90;;;;;;5048681;28;20058;-91
2023/08/06 06:15:19;;;;;;;2.28;0.60;;;13.40;99.90;;;;;;5048670;28;20376;-90
2023/08/06 06:17:45;;;;;;;0.82;0.40;;;14.20;99.90;;;;;;5048905;28;20052;-90
2023/08/06 06:20:10;;;;;;;1.05;0.82;;;14.30;99.90;;;;;;5048577;28;20845;-90
2023/08/06 06:22:36;;;;;;;0.25;0.22;;;14.40;99.90;;;;;;5048490;28;20041;-91
2023/08/06 06:25:02;;;;;;;1.05;0.55;;;15.20;99.90;;;;;;5032008;28;20499;-90
2023/08/06 06:27:28;;;;;;;4.07;0.98;;;14.60;99.90;;;;;;5032219;28;20044;-90
2023/08/06 06:29:54;;;;;;;0.65;0.55;;;14.70;99.90;;;;;;5031818;28;20052;-90
2023/08/06 06:32:21;;;;;;;3.10;1.15;;;14.70;99.90;;;;;;5056996;28;20048;-90
2023/08/06 06:34:46;;;;;;;1.20;0.93;;;15.20;99.90;;;;;;5039073;28;20048;-90
2023/08/06 06:37:12;;;;;;;1.73;1.42;;;15.00;99.90;;;;;;5065036;28;20044;-91
2023/08/06 06:39:38;;;;;;;0.50;0.47;;;15.20;99.90;;;;;;5048358;28;20037;-90
2023/08/06 06:42:04;;;;;;;0.30;0.22;;;16.20;99.90;;;;;;5047976;28;20049;-90
2023/08/06 06:44:29;;;;;;;1.73;1.33;;;15.30;99.90;;;;;;5047415;28;20128;-90
2023/08/06 06:46:55;;;;;;;2.30;1.10;;;16.60;99.90;;;;;;5031065;28;20135;-90
2023/08/06 06:49:21;;;;;;;1.17;0.65;;;16.50;99.90;;;;;;5031174;28;20040;-90
2023/08/06 06:51:47;;;;;;;1.23;1.02;;;15.60;99.90;;;;;;5047726;28;20041;-90
2023/08/06 06:54:12;;;;;;;0.10;0.10;;;15.60;99.90;;;;;;5031057;28;20049;-90
2023/08/06 06:56:38;;;;;;;1.58;1.15;;;15.80;99.90;;;;;;5031322;28;20075;-90
2023/08/06 06:59:04;;;;;;;0.57;0.57;;;15.90;99.90;;;;;;5031161;28;20598;-90
2023/08/06 07:01:29;;;;;;;0.40;0.40;;;16.10;99.90;;;;;;5049011;28;20076;-90
2023/08/06 07:03:57;;;;;;;1.58;1.00;;;16.20;99.90;;;;;;5030685;28;20136;-90
2023/08/06 07:06:26;;;;;;;0.40;0.40;;;16.20;99.90;;;;;;5047647;28;20045;-90
2023/08/06 07:08:52;;;;;;;1.98;1.33;;;16.40;99.90;;;;;;5030955;28;20549;-90
2023/08/06 07:11:17;;;;;;;0.25;0.25;;;16.40;99.90;;;;;;5029955;28;20480;-90
2023/08/06 07:13:46;;;;;;;0.35;0.35;;;16.10;99.90;;;;;;5030353;28;20385;-90
2023/08/06 07:16:12;;;;;;;0.45;0.45;;;17.80;99.90;;;;;;5047037;28;20059;-90
2023/08/06 07:18:38;;;;;;;2.60;0.38;;;16.50;99.90;;;;;;5030382;28;20132;-89
2023/08/06 07:21:04;;;;;;;1.13;0.50;;;16.70;99.90;;;;;;5030633;28;20084;-90
2023/08/06 07:23:30;;;;;;;0.68;0.68;;;16.60;99.90;;;;;;5048394;28;20211;-90
2023/08/06 07:26:14;;;;;;;2.75;0.95;;;17.40;99.90;;;;;;5034379;28;20174;-90
2023/08/06 07:28:53;;;;;;;1.65;1.15;;;16.60;99.90;;;;;;5031877;28;20131;-90
2023/08/06 07:31:50;;;;;;;6.82;1.65;;;16.70;99.90;;;;;;5033030;28;20048;-90
2023/08/06 07:34:25;;;;;;;0.35;0.35;;;16.20;99.90;;;;;;5049541;28;20111;-90
2023/08/06 07:37:04;;;;;;;1.70;0.85;;;16.70;99.90;;;;;;5050097;28;20040;-90
2023/08/06 07:39:32;;;;;;;0.17;0.17;;;16.80;99.90;;;;;;5050030;28;20410;-90
2023/08/06 07:42:10;;;;;;;1.13;0.93;;;16.90;99.90;;;;;;5032085;28;20154;-90
2023/08/06 07:44:38;;;;;;;0.95;0.50;;;17.00;99.90;;;;;;5032041;28;20048;-90
2023/08/06 07:47:05;;;;;;;0.35;0.35;;;17.40;99.90;;;;;;5045996;28;20628;-90
2023/08/06 07:49:31;;;;;;;1.25;1.08;;;17.60;99.90;;;;;;5046288;28;20049;-89
2023/08/06 07:52:00;;;;;;;1.13;0.80;;;17.70;99.90;;;;;;5029266;28;20111;-89
2023/08/06 07:54:30;;;;;;;1.27;1.00;;;18.00;99.90;;;;;;5029500;28;20115;-89
2023/08/06 07:56:56;;;;;;;0.47;0.43;;;18.20;99.90;;;;;;5029435;28;20057;-88
2023/08/06 07:59:22;;;;;;;0.40;0.40;;;17.90;99.90;;;;;;5047065;28;20128;-88
2023/08/06 08:01:47;;;;;;;3.42;1.27;;;17.90;99.90;;;;;;5030050;28;20510;-88
2023/08/06 08:04:17;;;;;;;2.05;1.17;;;18.10;99.90;;;;;;5047357;28;20045;-88
2023/08/06 08:06:45;;;;;;;0.65;0.55;;;18.50;99.90;;;;;;5049065;28;20044;-88
2023/08/06 08:09:11;;;;;;;0.95;0.90;;;18.70;99.90;;;;;;5031455;28;20045;-88
2023/08/06 08:11:37;;;;;;;1.10;1.00;;;18.80;99.90;;;;;;5033189;28;20044;-88
2023/08/06 08:14:05;;;;;;;0.45;0.45;;;19.00;99.90;;;;;;5033050;28;20044;-88
2023/08/06 08:16:31;;;;;;;1.13;0.70;;;19.40;99.90;;;;;;5032727;28;20049;-87
2023/08/06 08:18:57;;;;;;;2.10;1.30;;;19.60;99.90;;;;;;5032292;28;20102;-88
2023/08/06 08:21:24;;;;;;;1.00;0.75;;;19.80;99.90;;;;;;5049210;28;20068;-88
2023/08/06 08:23:50;;;;;;;1.30;0.93;;;20.00;1.00;;;;;;5046302;28;20485;-88
2023/08/06 08:26:16;;;;;;;0.95;0.45;;;20.60;1.00;;;;;;5048042;28;20053;-88
2023/08/06 08:28:42;;;;;;;1.27;0.75;;;21.70;99.90;;;;;;5029004;28;20048;-88
2023/08/06 08:31:13;;;;;;;0.47;0.40;;;23.10;99.90;;;;;;5030029;28;20049;-88
2023/08/06 08:33:42;;;;;;;0.40;0.32;;;23.00;99.90;;;;;;5045517;28;20076;-88
2023/08/06 08:36:09;;;;;;;1.25;0.90;;;22.80;90.60;;;;;;5028058;28;20057;-88
2023/08/06 08:38:35;;;;;;;1.65;1.10;;;22.40;1.00;;;;;;5046262;28;20458;-88
2023/08/06 08:41:01;;;;;;;1.25;0.77;;;22.30;99.90;;;;;;5045850;28;20037;-88
2023/08/06 08:43:30;;;;;;;2.15;1.13;;;22.40;99.90;;;;;;5047966;28;20052;-88
2023/08/06 08:45:58;;;;;;;1.00;0.60;;;22.80;1.00;;;;;;5048116;28;20052;-88
2023/08/06 08:48:26;;;;;;;1.13;1.00;;;23.30;99.90;;;;;;5031087;28;20060;-88
2023/08/06 08:50:53;;;;;;;1.13;0.70;;;24.30;99.90;;;;;;5033245;28;20052;-89
2023/08/06 08:53:19;;;;;;;0.38;0.25;;;23.50;99.90;;;;;;5048774;28;20053;-88
2023/08/06 08:55:48;;;;;;;0.47;0.47;;;23.50;99.90;;;;;;5046163;28;20055;-88
2023/08/06 08:58:14;;;;;;;0.40;0.40;;;23.10;99.90;;;;;;5026475;28;20127;-88
2023/08/06 09:00:46;;;;;;;0.20;0.15;;;24.50;69.40;;;;;;5042592;28;20045;-88
2023/08/06 09:03:12;;;;;;;0.73;0.45;;;25.60;99.90;;;;;;5042277;28;20053;-88
2023/08/06 09:05:42;;;;;;;0.45;0.43;;;26.70;99.90;;;;;;5042769;28;20048;-86
2023/08/06 09:08:11;;;;;;;0.22;0.22;;;27.50;1.00;;;;;;5042548;28;20094;-86
2023/08/06 09:10:38;;;;;;;4.57;0.52;;;28.10;99.90;;;;;;5045171;28;20044;-86
2023/08/06 09:13:04;;;;;;;0.50;0.50;;;28.30;98.50;;;;;;5043671;28;20395;-86
2023/08/06 09:15:31;;;;;;;0.73;0.40;;;27.70;1.00;;;;;;5045547;28;20041;-86
2023/08/06 09:17:56;;;;;;;0.63;0.43;;;27.20;99.90;;;;;;5044255;28;20045;-86
2023/08/06 09:20:22;;;;;;;0.45;0.35;;;27.00;99.90;;;;;;5027270;28;20407;-85
2023/08/06 09:22:48;;;;;;;0.55;0.47;;;26.70;99.90;;;;;;5044309;28;20045;-87
2023/08/06 09:25:25;;;;;;;0.60;0.38;;;26.10;99.90;;;;;;5046042;28;20095;-87
2023/08/06 09:27:52;;;;;;;0.38;0.22;;;25.80;99.90;;;;;;5046042;28;20602;-86
2023/08/06 09:30:31;;;;;;;0.10;0.10;;;25.60;99.90;;;;;;5047749;28;20075;-86
2023/08/06 09:32:57;;;;;;;0.22;0.22;;;25.30;99.90;;;;;;5045483;28;20045;-86
2023/08/06 09:35:23;;;;;;;0.10;0.10;;;25.30;99.90;;;;;;5027337;28;20045;-86
2023/08/06 09:37:49;;;;;;;0.32;0.30;;;25.30;99.90;;;;;;5044618;28;20453;-86
2023/08/06 09:40:31;;;;;;;0.10;0.10;;;25.40;99.90;;;;;;5043409;28;20041;-86
2023/08/06 09:42:58;;;;;;;0.28;0.20;;;25.50;99.90;;;;;;5044623;28;20044;-86
2023/08/06 09:45:32;;;;;;;0.05;0.03;;;25.70;99.90;;;;;;5026264;28;20045;-85
2023/08/06 09:47:59;;;;;;;7.97;1.30;;;25.90;99.90;;;;;;5043140;28;20053;-85
2023/08/06 09:50:36;;;;;;;0.00;0.00;;;25.60;99.90;;;;;;5026316;28;20051;-85
2023/08/06 09:53:08;;;;;;;0.22;0.22;;;26.60;99.90;;;;;;5041996;28;20041;-85
2023/08/06 09:55:34;;;;;;;2.03;0.57;;;27.10;99.90;;;;;;5042619;28;20049;-86
2023/08/06 09:58:00;;;;;;;0.00;0.00;;;27.10;99.90;;;;;;5043924;28;20131;-85
2023/08/06 10:00:28;;;;;;;0.10;0.10;;;26.80;99.90;;;;;;5043412;28;20045;-86
2023/08/06 10:02:55;;;;;;;0.00;0.00;;;26.50;99.90;;;;;;5040207;28;20052;-85
2023/08/06 10:05:23;;;;;;;0.20;0.20;;;26.60;99.90;;;;;;5041849;28;20119;-86
2023/08/06 10:07:50;;;;;;;0.20;0.10;;;26.00;99.90;;;;;;5042242;28;20329;-85
2023/08/06 10:10:19;;;;;;;0.15;0.10;;;26.10;99.90;;;;;;5042119;28;20556;-85
2023/08/06 10:12:51;;;;;;;2.00;1.10;;;25.50;40.50;;;;;;5043748;28;20495;-86
2023/08/06 10:15:22;;;;;;;0.10;0.10;;;25.00;40.00;;;;;;5044140;28;20052;-86
2023/08/06 10:17:51;;;;;;;0.00;0.00;;;25.10;84.40;;;;;;5042517;28;20049;-86
2023/08/06 10:20:17;;;;;;;0.95;0.08;;;25.30;94.60;;;;;;5041431;28;20040;-86
2023/08/06 10:22:46;;;;;;;0.10;0.10;;;25.40;71.20;;;;;;5043084;28;20053;-86
2023/08/06 10:25:16;;;;;;;0.10;0.10;;;26.10;59.50;;;;;;5025521;28;20076;-86
2023/08/06 10:27:48;;;;;;;0.43;0.30;;;25.40;16.10;;;;;;5041977;28;20079;-85
2023/08/06 10:30:29;;;;;;;1.27;0.50;;;25.10;10.70;;;;;;5024673;28;20119;-85
2023/08/06 10:32:57;;;;;;;0.05;0.05;;;25.00;1.00;;;;;;5024859;28;20056;-86
2023/08/06 10:35:30;;;;;;;1.00;0.57;;;25.20;21.10;;;;;;5043250;28;20052;-86
2023/08/06 10:38:17;;;;;;;0.17;0.10;;;25.50;73.00;;;;;;5025750;28;20041;-87
2023/08/06 10:40:50;;;;;;;0.00;0.00;;;25.30;1.00;;;;;;5039317;28;20040;-87
2023/08/06 10:43:29;;;;;;;0.10;0.10;;;25.40;64.10;;;;;;5043756;28;20778;-86
2023/08/06 10:45:56;;;;;;;0.25;0.20;;;25.60;60.00;;;;;;5043649;28;20037;-86
2023/08/06 10:48:38;;;;;;;0.00;0.00;;;25.80;50.40;;;;;;5025171;28;20036;-86
2023/08/06 10:51:08;;;;;;;0.17;0.17;;;25.40;1.00;;;;;;5040675;28;20036;-88
2023/08/06 10:53:34;;;;;;;0.32;0.13;;;25.20;1.00;;;;;;5043352;28;20071;-87
2023/08/06 10:56:00;;;;;;;0.00;0.00;;;24.70;1.00;;;;;;5042124;28;20049;-86
2023/08/06 10:58:26;;;;;;;0.00;0.00;;;24.10;1.00;;;;;;5043092;28;20045;-86
2023/08/06 11:00:52;;;;;;;0.00;0.00;;;24.10;1.00;;;;;;5043648;28;20041;-88
2023/08/06 11:03:18;;;;;;;0.13;0.10;;;24.00;1.00;;;;;;5046415;28;20052;-85
2023/08/06 11:05:52;;;;;;;3.33;0.38;;;24.30;1.00;;;;;;5043682;28;20526;-88
2023/08/06 11:08:28;;;;;;;0.00;0.00;;;24.20;1.00;;;;;;5029600;28;20064;-87
2023/08/06 11:10:54;;;;;;;0.00;0.00;;;24.00;1.00;;;;;;5046733;28;20041;-88
2023/08/06 11:13:24;;;;;;;0.00;0.00;;;23.80;1.00;;;;;;5048675;28;20053;-87
2023/08/06 11:15:52;;;;;;;3.25;0.52;;;23.30;1.00;;;;;;5047837;28;20048;-87
2023/08/06 11:18:18;;;;;;;0.30;0.25;;;22.60;1.00;;;;;;5046861;28;20348;-85
2023/08/06 11:20:46;;;;;;;0.15;0.05;;;22.40;1.00;;;;;;5048927;28;20053;-85
2023/08/06 11:23:12;;;;;;;0.90;0.52;;;22.10;1.00;;;;;;5048668;28;20045;-85
2023/08/06 11:25:43;;;;;;;0.40;0.30;;;21.90;1.00;;;;;;5047517;28;20060;-85
2023/08/06 11:28:10;;;;;;;0.75;0.40;;;21.70;1.00;;;;;;5048480;28;20436;-85
2023/08/06 11:30:37;;;;;;;0.00;0.00;;;22.20;1.00;;;;;;5030993;28;20407;-85
2023/08/06 11:33:03;;;;;;;0.05;0.05;;;22.80;1.00;;;;;;5047264;28;20055;-85
2023/08/06 11:35:28;;;;;;;0.30;0.17;;;22.70;1.00;;;;;;5048425;28;20412;-85
2023/08/06 11:37:54;;;;;;;0.00;0.00;;;23.00;1.00;;;;;;5049856;28;20053;-86
2023/08/06 11:40:20;;;;;;;0.10;0.03;;;23.20;1.00;;;;;;5046323;28;20131;-86
2023/08/06 11:42:47;;;;;;;0.57;0.17;;;23.70;1.00;;;;;;5047897;28;20087;-86
2023/08/06 11:45:12;;;;;;;0.10;0.10;;;23.90;1.00;;;;;;5057306;28;20017;-84
2023/08/06 11:47:40;;;;;;;0.52;0.38;;;24.50;1.00;;;;;;5069299;28;20132;-85
2023/08/06 11:50:06;;;;;;;0.13;0.10;;;24.80;1.00;;;;;;5071164;28;20040;-84
2023/08/06 11:52:32;;;;;;;0.60;0.30;;;24.80;1.00;;;;;;5071254;28;20071;-85
2023/08/06 11:55:10;;;;;;;0.00;0.00;;;24.60;1.00;;;;;;5051607;28;20033;-85
2023/08/06 11:57:39;;;;;;;0.10;0.10;;;24.60;1.00;;;;;;5067866;28;20054;-86
2023/08/06 12:00:14;;;;;;;0.28;0.28;;;25.50;1.00;;;;;;5069196;28;20351;-86
2023/08/06 12:02:41;;;;;;;0.00;0.00;;;24.90;1.00;;;;;;5070144;28;20036;-85
2023/08/06 12:05:20;;;;;;;0.00;0.00;;;24.80;1.00;;;;;;5055574;28;20103;-85
2023/08/06 12:07:48;;;;;;;0.03;0.03;;;24.50;1.00;;;;;;5049665;28;20055;-85
2023/08/06 12:10:15;;;;;;;0.10;0.10;;;24.70;1.00;;;;;;5048617;28;20056;-85
2023/08/06 12:12:41;;;;;;;0.00;0.00;;;24.40;1.00;;;;;;5047892;28;20057;-85
2023/08/06 12:15:08;;;;;;;0.00;0.00;;;24.70;1.00;;;;;;5046082;28;20049;-85
2023/08/06 12:17:34;;;;;;;0.00;0.00;;;25.60;1.00;;;;;;5047221;28;20057;-85
2023/08/06 12:20:01;;;;;;;0.40;0.30;;;26.60;1.00;;;;;;5047256;28;20053;-86
2023/08/06 12:22:27;;;;;;;0.05;0.05;;;27.60;3.00;;;;;;5041308;28;20083;-86
2023/08/06 12:24:52;;;;;;;0.00;0.00;;;27.90;1.00;;;;;;5040439;28;20076;-86
2023/08/06 12:27:18;;;;;;;0.38;0.30;;;28.70;8.50;;;;;;5041720;28;20037;-86
2023/08/06 12:29:45;;;;;;;0.00;0.00;;;28.70;1.00;;;;;;5042139;28;20049;-85
2023/08/06 12:32:12;;;;;;;0.00;0.00;;;29.10;1.00;;;;;;5041889;28;20091;-86
2023/08/06 12:34:39;;;;;;;0.65;0.47;;;28.80;99.90;;;;;;5040335;28;20084;-85
2023/08/06 12:37:05;;;;;;;0.32;0.22;;;28.60;99.90;;;;;;5040589;28;20075;-85
2023/08/06 12:39:32;;;;;;;0.00;0.00;;;28.60;99.90;;;;;;5040714;28;20049;-85
2023/08/06 12:41:58;;;;;;;0.25;0.10;;;28.90;99.90;;;;;;5040504;28;20487;-85
2023/08/06 12:44:24;;;;;;;0.00;0.00;;;28.70;99.90;;;;;;5043914;28;20060;-85
2023/08/06 12:46:51;;;;;;;0.00;0.00;;;29.40;99.90;;;;;;5044576;28;20049;-86
2023/08/06 12:49:18;;;;;;;0.80;0.20;;;30.00;99.90;;;;;;5044517;28;20044;-86